Time;durP1;ratioP1;P1;durP2;ratioP2;P2;SDS_P1;SDS_P2;PMS_P1;PMS_P2;Temp;Humidity;BMP_temperature;BMP_pressure;BME280_temperature;BME280_humidity;BME280_pressure;Samples;Min_cycle;Max_cycle;Signal;HPM_P1;HPM_P2
2022/10/17 00:01:08;;;;;;;22.15;8.25;;;;;;;7.86;77.00;149632.38;1782691;80;21014;-66
2022/10/17 00:03:36;;;;;;;18.57;8.73;;;;;;;7.79;77.12;149614.22;1782885;80;21093;-64
2022/10/17 00:06:10;;;;;;;15.45;8.60;;;;;;;7.72;77.29;149598.69;1782766;80;21041;-65
2022/10/17 00:08:37;;;;;;;15.88;8.00;;;;;;;7.68;77.55;149587.03;1783675;80;21010;-63
2022/10/17 00:11:08;;;;;;;19.82;8.43;;;;;;;7.62;77.89;149572.77;1783352;80;21779;-63
2022/10/17 00:13:35;;;;;;;18.17;8.43;;;;;;;7.57;78.36;149559.83;1783334;80;21015;-63
2022/10/17 00:16:04;;;;;;;20.27;9.13;;;;;;;7.53;78.67;149550.80;1782316;79;21217;-63
2022/10/17 00:18:31;;;;;;;18.45;9.23;;;;;;;7.51;79.13;149545.58;1781764;80;21061;-63
2022/10/17 00:20:58;;;;;;;18.27;8.30;;;;;;;7.51;79.34;149544.31;1783411;79;21010;-63
2022/10/17 00:23:27;;;;;;;14.00;7.72;;;;;;;7.50;79.49;149542.98;1783334;79;21421;-64
2022/10/17 00:26:00;;;;;;;17.42;8.60;;;;;;;7.50;79.47;149541.72;1783550;80;21018;-64
2022/10/17 00:28:27;;;;;;;15.35;8.78;;;;;;;7.49;79.25;149539.14;1783375;80;21076;-64
2022/10/17 00:31:02;;;;;;;18.70;8.50;;;;;;;7.49;78.91;149539.14;1783266;80;21077;-63
2022/10/17 00:33:30;;;;;;;19.32;8.80;;;;;;;7.49;78.53;149540.41;1782226;79;21650;-63
2022/10/17 00:36:18;;;;;;;18.55;8.10;;;;;;;7.49;78.07;149539.14;1782081;80;21085;-63
2022/10/17 00:38:46;;;;;;;18.15;8.70;;;;;;;7.48;77.49;149536.55;1781248;80;21003;-63
2022/10/17 00:41:16;;;;;;;16.82;8.23;;;;;;;7.45;77.15;149530.06;1781769;80;21069;-63
2022/10/17 00:44:04;;;;;;;16.57;8.50;;;;;;;7.44;77.16;149527.47;1781744;80;21444;-63
2022/10/17 00:46:35;;;;;;;18.55;8.63;;;;;;;7.44;77.09;149528.78;1782349;80;21019;-67
2022/10/17 00:49:06;;;;;;;17.65;8.53;;;;;;;7.45;76.81;149531.38;1782244;80;21222;-68
2022/10/17 00:51:43;;;;;;;19.73;8.50;;;;;;;7.47;76.50;149533.95;1781763;80;21516;-67
2022/10/17 00:54:11;;;;;;;23.83;9.53;;;;;;;7.44;76.07;149528.78;1782088;80;20954;-68
2022/10/17 00:56:40;;;;;;;24.07;9.18;;;;;;;7.42;75.57;149523.61;1782284;80;20975;-65
2022/10/17 00:59:08;;;;;;;16.62;9.00;;;;;;;7.40;75.44;149518.39;1783854;80;21631;-65
2022/10/17 01:01:38;;;;;;;18.75;8.58;;;;;;;7.38;75.37;149513.22;1783711;80;22614;-64
2022/10/17 01:04:05;;;;;;;26.93;9.58;;;;;;;7.36;75.17;149508.03;1795771;79;21502;-64
2022/10/17 01:06:32;;;;;;;18.00;9.38;;;;;;;7.34;74.99;149502.88;1798097;79;21009;-64
2022/10/17 01:08:59;;;;;;;17.92;9.50;;;;;;;7.31;74.76;149495.11;1780935;79;21017;-65
2022/10/17 01:11:33;;;;;;;20.65;9.98;;;;;;;7.29;74.65;149489.94;1780223;79;20947;-65
2022/10/17 01:14:23;;;;;;;18.20;9.70;;;;;;;7.26;74.52;149482.17;1780252;79;21092;-66
2022/10/17 01:17:17;;;;;;;18.70;9.60;;;;;;;7.25;74.43;149479.59;1780533;79;21088;-65
2022/10/17 01:20:26;;;;;;;21.12;10.32;;;;;;;7.23;74.37;149474.42;1780362;79;21038;-66
2022/10/17 01:23:16;;;;;;;23.65;10.45;;;;;;;7.20;74.36;149467.92;1792654;79;21068;-66
2022/10/17 01:26:21;;;;;;;26.95;11.40;;;;;;;7.19;74.46;149464.06;1797894;79;20994;-64
2022/10/17 01:29:27;;;;;;;20.20;11.25;;;;;;;7.19;74.50;149464.06;1798171;79;21137;-63
2022/10/17 01:31:57;;;;;;;;;;;;;;;7.16;74.62;149458.84;1790711;78;21026;-64
2022/10/17 01:34:36;;;;;;;24.63;10.53;;;;;;;7.11;74.84;149444.64;1780241;79;20160;-64
2022/10/17 01:37:22;;;;;;;22.35;10.90;;;;;;;7.08;74.98;149438.16;1780542;79;21448;-63
2022/10/17 01:40:09;;;;;;;22.98;11.55;;;;;;;7.04;75.18;149427.81;1780245;79;21026;-64
2022/10/17 01:43:09;;;;;;;20.00;10.50;;;;;;;7.03;75.28;149425.22;1780576;79;21912;-64
2022/10/17 01:45:52;;;;;;;27.65;11.78;;;;;;;6.99;75.47;149416.16;1793195;79;20998;-66
2022/10/17 01:48:25;;;;;;;22.52;10.88;;;;;;;6.97;75.64;149409.70;1792621;79;21645;-65
2022/10/17 01:50:56;;;;;;;20.80;10.53;;;;;;;6.96;75.73;149407.08;1788383;79;21134;-66
2022/10/17 01:53:32;;;;;;;21.90;10.68;;;;;;;6.93;75.86;149400.63;1794459;79;21006;-65
2022/10/17 01:56:01;;;;;;;22.30;11.05;;;;;;;6.92;75.99;149396.73;1794218;79;21195;-66
2022/10/17 01:58:54;;;;;;;21.52;10.13;;;;;;;6.88;76.08;149388.97;1791518;79;21023;-65
2022/10/17 02:01:22;;;;;;;23.45;10.65;;;;;;;6.84;76.14;149378.63;1794515;79;21476;-65
2022/10/17 02:03:50;;;;;;;22.58;11.05;;;;;;;6.82;76.30;149373.45;1760786;80;21004;-65
2022/10/17 02:06:18;;;;;;;20.52;10.30;;;;;;;6.79;76.29;149365.69;1783111;80;21453;-66
2022/10/17 02:08:49;;;;;;;22.20;9.83;;;;;;;6.78;76.34;149361.80;1782456;80;21235;-66
2022/10/17 02:11:24;;;;;;;20.68;10.45;;;;;;;6.75;76.31;149355.36;1782435;80;21011;-66
2022/10/17 02:14:23;;;;;;;21.23;10.50;;;;;;;6.71;76.25;149346.28;1782884;80;21048;-67
2022/10/17 02:17:02;;;;;;;22.05;9.20;;;;;;;6.69;76.43;149341.11;1782280;80;20990;-66
2022/10/17 02:19:53;;;;;;;23.25;10.95;;;;;;;6.65;76.47;149329.45;1780592;80;21114;-66
2022/10/17 02:22:50;;;;;;;20.00;9.68;;;;;;;6.62;76.62;149322.97;1784156;80;21793;-68
2022/10/17 02:25:40;;;;;;;23.05;9.70;;;;;;;6.59;76.85;149315.20;1783975;80;21146;-69
2022/10/17 02:28:20;;;;;;;21.87;9.73;;;;;;;6.56;77.19;149307.45;1783145;80;20991;-69
2022/10/17 02:30:56;;;;;;;15.90;9.18;;;;;;;6.55;77.56;149306.19;1773083;80;21867;-67
2022/10/17 02:33:34;;;;;;;25.85;9.98;;;;;;;6.53;77.74;149299.69;1783603;80;21110;-67
2022/10/17 02:36:09;;;;;;;20.43;10.03;;;;;;;6.52;77.94;149298.44;1785038;80;21116;-66
2022/10/17 02:38:36;;;;;;;21.68;10.00;;;;;;;6.50;78.08;149293.20;1782536;80;21072;-66
2022/10/17 02:41:03;;;;;;;18.23;8.98;;;;;;;6.49;78.30;149290.63;1781810;80;21021;-66
2022/10/17 02:43:30;;;;;;;22.82;9.40;;;;;;;6.49;78.40;149290.63;1784499;80;21004;-66
2022/10/17 02:45:58;;;;;;;19.32;9.30;;;;;;;6.48;78.38;149288.03;1785725;80;21117;-66
2022/10/17 02:48:44;;;;;;;17.67;9.08;;;;;;;6.45;78.54;149280.28;1781939;80;21797;-67
2022/10/17 02:51:50;;;;;;;20.57;9.35;;;;;;;6.45;78.74;149280.28;1777307;80;21011;-66
2022/10/17 02:54:33;;;;;;;20.77;10.93;;;;;;;6.45;79.26;149280.28;1776923;80;21071;-65
2022/10/17 02:57:15;;;;;;;20.45;9.50;;;;;;;6.43;79.54;149276.44;1783177;80;21559;-67
2022/10/17 02:59:44;;;;;;;22.35;9.30;;;;;;;6.43;79.77;149275.11;1784153;80;21076;-65
2022/10/17 03:02:12;;;;;;;16.87;8.70;;;;;;;6.43;80.36;149276.44;1783508;80;21085;-65
2022/10/17 03:04:44;;;;;;;21.48;9.13;;;;;;;6.44;80.91;149277.69;1788809;79;20985;-66
2022/10/17 03:07:12;;;;;;;18.25;9.63;;;;;;;6.48;81.08;149288.03;1784864;79;21042;-66
2022/10/17 03:09:39;;;;;;;19.27;9.60;;;;;;;6.49;81.42;149290.63;1793619;79;20942;-66
2022/10/17 03:12:05;;;;;;;19.00;9.20;;;;;;;6.53;81.72;149301.02;1793078;79;21026;-65
2022/10/17 03:14:34;;;;;;;17.98;8.80;;;;;;;6.55;81.78;149306.19;1791283;79;21247;-66
2022/10/17 03:17:03;;;;;;;20.43;10.28;;;;;;;6.54;81.85;149303.59;1793626;79;21033;-65
2022/10/17 03:19:30;;;;;;;19.95;9.93;;;;;;;6.53;81.85;149301.02;1791522;78;21108;-63
2022/10/17 03:21:58;;;;;;;18.62;9.35;;;;;;;6.52;82.03;149297.11;1781894;79;21007;-64
2022/10/17 03:24:24;;;;;;;20.00;9.80;;;;;;;6.51;82.29;149294.53;1779914;79;21022;-63
2022/10/17 03:26:51;;;;;;;23.62;9.53;;;;;;;6.51;82.54;149294.53;1780154;79;21822;-63
2022/10/17 03:29:18;;;;;;;19.35;9.90;;;;;;;6.49;82.80;149290.63;1780210;79;21025;-63
2022/10/17 03:31:46;;;;;;;19.32;9.98;;;;;;;6.48;83.07;149288.03;1780166;79;21051;-63
2022/10/17 03:34:15;;;;;;;23.95;10.75;;;;;;;6.49;83.25;149290.63;1797899;79;21061;-63
2022/10/17 03:36:42;;;;;;;25.72;10.63;;;;;;;6.49;83.47;149289.36;1797153;79;21595;-66
2022/10/17 03:39:10;;;;;;;22.17;9.80;;;;;;;6.49;83.64;149289.36;1787026;79;21239;-66
2022/10/17 03:41:38;;;;;;;20.92;9.58;;;;;;;6.48;83.68;149288.03;1790951;79;21058;-65
2022/10/17 03:44:05;;;;;;;23.45;10.85;;;;;;;6.47;83.88;149284.19;1790934;79;21006;-66
2022/10/17 03:46:32;;;;;;;22.52;9.23;;;;;;;6.45;84.23;149280.28;1794219;78;21006;-67
2022/10/17 03:49:00;;;;;;;23.52;10.03;;;;;;;6.43;84.36;149276.44;1798529;78;21025;-64
2022/10/17 03:51:26;;;;;;;24.00;10.68;;;;;;;6.43;84.65;149276.44;1797798;79;21247;-64
2022/10/17 03:53:55;;;;;;;21.60;10.35;;;;;;;6.43;84.95;149275.11;1797599;79;21061;-63
2022/10/17 03:56:23;;;;;;;23.42;9.58;;;;;;;6.41;85.19;149271.27;1797873;79;21026;-64
2022/10/17 03:58:55;;;;;;;19.87;9.70;;;;;;;6.40;85.35;149267.36;1781850;79;20910;-66
2022/10/17 04:01:22;;;;;;;20.55;9.40;;;;;;;6.37;85.44;149260.88;1781527;79;21642;-64
2022/10/17 04:03:51;;;;;;;25.90;10.63;;;;;;;6.32;85.25;149247.94;1780562;79;21248;-63
2022/10/17 04:06:18;;;;;;;23.15;10.18;;;;;;;6.25;85.10;149231.13;1757060;80;21332;-63
2022/10/17 04:08:47;;;;;;;25.43;9.17;;;;;;;6.18;85.20;149213.03;1783411;80;20995;-64
2022/10/17 04:11:18;;;;;;;20.92;9.80;;;;;;;6.09;85.24;149189.77;1783418;79;21101;-63
2022/10/17 04:13:45;;;;;;;21.80;9.75;;;;;;;6.00;85.42;149169.00;1783790;79;21022;-63
2022/10/17 04:16:15;;;;;;;21.62;8.98;;;;;;;5.93;85.54;149150.91;1784320;80;21074;-66
2022/10/17 04:18:44;;;;;;;21.00;10.25;;;;;;;5.85;85.63;149131.50;1783233;80;21038;-66
2022/10/17 04:21:11;;;;;;;27.10;9.83;;;;;;;5.78;85.76;149112.11;1783075;80;21472;-64
2022/10/17 04:23:38;;;;;;;16.40;8.85;;;;;;;5.72;86.01;149099.19;1784300;80;21077;-64
2022/10/17 04:26:07;;;;;;;21.57;10.10;;;;;;;5.69;86.23;149091.44;1782835;80;21018;-64
2022/10/17 04:28:33;;;;;;;19.12;9.30;;;;;;;5.70;86.31;149094.02;1784045;80;21561;-65
2022/10/17 04:31:05;;;;;;;20.60;9.88;;;;;;;5.71;86.17;149095.28;1783638;80;21026;-64
2022/10/17 04:33:33;;;;;;;19.85;9.18;;;;;;;5.69;85.90;149090.12;1781622;79;21014;-64
2022/10/17 04:36:03;;;;;;;26.37;9.65;;;;;;;5.66;85.70;149083.69;1781921;80;21046;-64
2022/10/17 04:38:30;;;;;;;26.17;10.55;;;;;;;5.64;85.63;149078.52;1781869;79;21073;-64
2022/10/17 04:41:01;;;;;;;23.12;10.48;;;;;;;5.65;85.62;149081.09;1784167;80;21289;-65
2022/10/17 04:43:34;;;;;;;22.62;10.80;;;;;;;5.67;85.33;149086.27;1783496;80;22234;-66
2022/10/17 04:46:03;;;;;;;21.20;10.05;;;;;;;5.69;85.25;149091.44;1784984;80;21054;-65
2022/10/17 04:48:30;;;;;;;27.98;11.25;;;;;;;5.73;85.33;149101.77;1784197;79;21038;-64
2022/10/17 04:51:01;;;;;;;23.47;10.93;;;;;;;5.80;85.34;149118.59;1783843;79;21093;-63
2022/10/17 04:53:33;;;;;;;23.35;11.22;;;;;;;5.92;85.34;149148.33;1783320;80;21130;-64
2022/10/17 04:56:00;;;;;;;30.12;10.75;;;;;;;6.12;85.05;149197.53;1785263;80;20939;-66
2022/10/17 04:58:29;;;;;;;43.38;10.93;;;;;;;6.22;84.50;149223.37;1784831;80;21514;-66
2022/10/17 05:00:57;;;;;;;25.70;11.90;;;;;;;6.27;84.27;149236.30;1784551;80;21050;-67
2022/10/17 05:03:26;;;;;;;28.10;12.28;;;;;;;6.34;83.99;149251.84;1785350;80;21046;-66
2022/10/17 05:05:53;;;;;;;32.63;11.85;;;;;;;6.40;83.87;149267.36;1799329;78;21400;-67
2022/10/17 05:08:20;;;;;;;22.50;11.48;;;;;;;6.46;83.71;149282.88;1798122;79;21093;-66
2022/10/17 05:10:47;;;;;;;25.85;12.03;;;;;;;6.55;83.65;149304.86;1797497;79;21049;-64
2022/10/17 05:13:14;;;;;;;24.37;12.28;;;;;;;6.64;83.53;149326.88;1797505;79;21471;-64
2022/10/17 05:15:43;;;;;;;27.73;12.07;;;;;;;6.74;83.48;149352.72;1797124;78;21403;-69
2022/10/17 05:18:11;;;;;;;25.35;11.55;;;;;;;6.84;83.14;149378.63;1797629;79;21602;-69
2022/10/17 05:20:39;;;;;;;26.42;11.25;;;;;;;6.93;82.79;149399.31;1797572;78;21026;-69
2022/10/17 05:23:06;;;;;;;25.65;11.60;;;;;;;7.00;82.57;149417.47;1797631;78;21483;-69
2022/10/17 05:25:34;;;;;;;28.90;12.05;;;;;;;7.08;82.20;149438.16;1797634;79;21021;-69
2022/10/17 05:28:02;;;;;;;25.65;12.47;;;;;;;7.15;81.90;149456.25;1798014;78;21001;-65
2022/10/17 05:30:29;;;;;;;25.50;12.80;;;;;;;7.21;81.66;149469.25;1798601;79;21248;-65
2022/10/17 05:32:58;;;;;;;23.15;12.30;;;;;;;7.26;81.67;149483.44;1798328;79;21641;-65
2022/10/17 05:35:25;;;;;;;29.10;12.10;;;;;;;7.34;81.55;149502.88;1798516;79;21030;-65
2022/10/17 05:37:52;;;;;;;21.10;10.95;;;;;;;7.42;81.44;149522.30;1797806;79;21435;-65
2022/10/17 05:40:19;;;;;;;23.85;11.40;;;;;;;7.51;81.30;149544.31;1798588;79;21010;-66
2022/10/17 05:42:47;;;;;;;29.67;12.88;;;;;;;7.60;80.93;149568.91;1798236;79;21270;-66
2022/10/17 05:45:15;;;;;;;18.98;10.45;;;;;;;7.66;80.72;149581.84;1799093;79;21038;-66
2022/10/17 05:47:42;;;;;;;25.75;12.13;;;;;;;7.77;80.78;149609.05;1798512;79;21551;-67
2022/10/17 05:50:10;;;;;;;24.32;11.48;;;;;;;7.88;80.74;149637.56;1798533;79;20950;-67
2022/10/17 05:52:39;;;;;;;25.02;10.85;;;;;;;8.01;80.29;149671.20;1797996;78;21111;-67
2022/10/17 05:55:10;;;;;;;23.27;10.45;;;;;;;8.11;79.83;149694.55;1796956;79;21229;-67
2022/10/17 05:57:37;;;;;;;24.15;11.75;;;;;;;8.20;79.36;149716.56;1799004;79;21072;-66
2022/10/17 06:00:09;;;;;;;22.87;10.55;;;;;;;8.27;79.09;149735.97;1798794;79;21208;-66
2022/10/17 06:02:42;;;;;;;19.80;10.00;;;;;;;8.36;78.90;149756.72;1798541;79;21496;-65
2022/10/17 06:05:11;;;;;;;21.57;10.08;;;;;;;8.45;78.35;149781.34;1789992;79;21148;-64
2022/10/17 06:07:39;;;;;;;18.12;9.70;;;;;;;8.52;78.02;149796.92;1779613;79;21130;-65
2022/10/17 06:10:08;;;;;;;24.25;10.28;;;;;;;8.60;77.96;149817.63;1780844;79;21093;-65
2022/10/17 06:12:36;;;;;;;25.60;9.40;;;;;;;8.69;77.57;149839.67;1760341;79;21498;-64
2022/10/17 06:15:04;;;;;;;26.20;10.32;;;;;;;8.78;77.23;149863.03;1783516;79;21031;-64
2022/10/17 06:17:34;;;;;;;22.42;10.18;;;;;;;8.88;76.88;149888.92;1785222;79;21094;-64
2022/10/17 06:20:02;;;;;;;25.57;10.95;;;;;;;8.98;76.64;149912.28;1783145;79;22045;-64
2022/10/17 06:22:29;;;;;;;23.22;10.25;;;;;;;9.09;76.19;149940.77;1776444;79;21039;-63
2022/10/17 06:24:58;;;;;;;23.20;10.70;;;;;;;9.16;75.92;149957.63;1778566;77;21098;-69
2022/10/17 06:27:26;;;;;;;24.37;10.93;;;;;;;9.25;75.45;149980.94;1775387;79;21001;-63
2022/10/17 06:29:53;;;;;;;28.10;9.43;;;;;;;9.33;75.01;149999.13;1783624;79;21054;-66
2022/10/17 06:32:20;;;;;;;16.45;9.23;;;;;;;9.41;74.90;150021.17;1786781;79;21515;-67
2022/10/17 06:34:47;;;;;;;20.90;10.48;;;;;;;9.53;74.54;150049.67;1790857;79;20974;-66
2022/10/17 06:37:15;;;;;;;24.20;9.55;;;;;;;9.64;74.06;150078.22;1786233;79;32734;-67
2022/10/17 06:39:44;;;;;;;23.60;10.55;;;;;;;9.74;73.75;150104.14;1762945;79;21041;-68
2022/10/17 06:42:13;;;;;;;16.67;9.08;;;;;;;9.87;73.55;150135.28;1786109;79;21213;-67
2022/10/17 06:44:45;;;;;;;15.08;8.98;;;;;;;10.01;73.14;150170.31;1777524;79;21278;-67
2022/10/17 06:47:19;;;;;;;16.15;8.48;;;;;;;10.17;72.64;150210.50;1766013;79;21034;-67
2022/10/17 06:49:47;;;;;;;19.92;10.20;;;;;;;10.29;72.02;150241.66;1777093;79;21032;-66
2022/10/17 06:52:20;;;;;;;19.55;9.43;;;;;;;10.38;71.89;150262.41;1773709;79;21069;-64
2022/10/17 06:54:50;;;;;;;25.62;9.73;;;;;;;10.50;71.60;150292.30;1758058;80;21539;-65
2022/10/17 06:57:22;;;;;;;25.10;9.60;;;;;;;10.60;71.34;150319.55;1757067;79;21127;-65
2022/10/17 06:59:54;;;;;;;21.23;9.55;;;;;;;10.73;71.20;150351.98;1782010;79;20983;-63
2022/10/17 07:02:26;;;;;;;19.87;9.05;;;;;;;10.86;70.92;150383.16;1780621;79;21033;-64
2022/10/17 07:04:55;;;;;;;18.42;9.40;;;;;;;10.97;71.05;150410.42;1774340;79;21595;-63
2022/10/17 07:07:22;;;;;;;18.32;8.45;;;;;;;11.08;70.56;150438.94;1772172;79;21090;-64
2022/10/17 07:09:50;;;;;;;22.15;9.13;;;;;;;11.20;70.38;150467.53;1790538;78;21261;-64
2022/10/17 07:12:19;;;;;;;19.55;9.23;;;;;;;11.25;70.50;150480.50;1791384;79;21082;-64
2022/10/17 07:14:46;;;;;;;16.37;8.35;;;;;;;11.35;70.84;150506.44;1776706;79;21010;-64
2022/10/17 07:17:13;;;;;;;14.47;8.40;;;;;;;11.44;71.36;150529.84;1780381;79;21002;-64
2022/10/17 07:19:43;;;;;;;18.12;8.85;;;;;;;11.48;71.91;150537.63;1783517;79;21018;-64
2022/10/17 07:22:11;;;;;;;13.15;7.45;;;;;;;11.51;72.34;150545.42;1780468;79;21835;-64
2022/10/17 07:24:40;;;;;;;16.42;7.42;;;;;;;11.62;73.06;150574.02;1782890;79;21355;-64
2022/10/17 07:27:08;;;;;;;16.42;7.05;;;;;;;11.74;74.00;150605.16;1771259;79;21018;-65
2022/10/17 07:29:36;;;;;;;16.57;7.10;;;;;;;11.84;74.75;150629.83;1781825;79;21077;-65
2022/10/17 07:32:07;;;;;;;13.43;6.85;;;;;;;11.88;75.34;150640.22;1786510;79;21243;-64
2022/10/17 07:34:38;;;;;;;25.27;6.75;;;;;;;11.94;75.14;150654.52;1773961;79;21116;-65
2022/10/17 07:37:06;;;;;;;25.00;6.87;;;;;;;12.00;75.38;150670.09;1774081;79;21090;-66
2022/10/17 07:39:34;;;;;;;25.15;6.80;;;;;;;12.09;75.65;150692.22;1778227;79;21050;-67
2022/10/17 07:42:02;;;;;;;31.15;7.25;;;;;;;12.14;76.13;150703.94;1788705;79;21657;-65
2022/10/17 07:44:29;;;;;;;20.17;6.40;;;;;;;12.16;76.95;150709.13;1786719;79;20982;-65
2022/10/17 07:46:56;;;;;;;24.20;7.53;;;;;;;12.19;77.18;150716.91;1789929;79;22107;-67
2022/10/17 07:49:25;;;;;;;21.40;7.40;;;;;;;12.23;77.31;150726.03;1794962;79;20938;-67
2022/10/17 07:51:52;;;;;;;21.55;7.25;;;;;;;12.28;77.28;150739.00;1788467;79;21007;-65
2022/10/17 07:54:19;;;;;;;33.30;7.53;;;;;;;12.29;77.09;150742.92;1782402;79;21038;-64
2022/10/17 07:56:49;;;;;;;14.85;7.08;;;;;;;12.36;77.26;150758.50;1752537;81;20956;-67
2022/10/17 07:59:17;;;;;;;22.20;7.50;;;;;;;12.44;77.01;150779.27;1746390;80;21865;-67
2022/10/17 08:01:44;;;;;;;23.77;7.58;;;;;;;12.48;76.20;150788.39;1748462;80;21051;-66
2022/10/17 08:04:11;;;;;;;16.37;6.83;;;;;;;12.51;76.26;150797.50;1736302;82;21079;-68
2022/10/17 08:06:39;;;;;;;15.20;7.42;;;;;;;12.58;75.73;150815.67;1740368;81;21089;-66
2022/10/17 08:09:06;;;;;;;23.55;7.15;;;;;;;12.65;74.93;150831.25;1746939;81;21164;-66
2022/10/17 08:11:35;;;;;;;21.02;7.78;;;;;;;12.64;74.38;150829.98;1746096;80;21129;-66
2022/10/17 08:14:02;;;;;;;17.60;7.30;;;;;;;12.66;74.60;150833.84;1756021;81;21530;-68
2022/10/17 08:16:30;;;;;;;17.85;6.65;;;;;;;12.67;74.54;150837.78;1743802;81;21523;-67
2022/10/17 08:18:56;;;;;;;12.47;6.80;;;;;;;12.71;74.44;150846.84;1756289;81;21004;-65
2022/10/17 08:21:23;;;;;;;18.15;6.47;;;;;;;12.73;74.75;150853.36;1765947;80;21111;-65
2022/10/17 08:23:50;;;;;;;22.02;6.22;;;;;;;12.76;74.52;150859.88;1752545;80;21271;-65
2022/10/17 08:26:18;;;;;;;14.63;6.40;;;;;;;12.77;74.25;150862.47;1772934;80;21036;-65
2022/10/17 08:28:46;;;;;;;16.10;6.67;;;;;;;12.79;73.86;150867.66;1764945;80;21038;-65
2022/10/17 08:31:17;;;;;;;13.60;6.60;;;;;;;12.79;73.80;150867.66;1753881;80;21048;-65
2022/10/17 08:33:46;;;;;;;18.50;6.95;;;;;;;12.81;73.80;150872.86;1769365;80;21094;-64
2022/10/17 08:36:15;;;;;;;11.73;6.28;;;;;;;12.85;73.75;150883.25;1780312;80;21072;-65
2022/10/17 08:38:42;;;;;;;13.75;5.70;;;;;;;12.90;73.61;150896.23;1774930;80;21727;-67
2022/10/17 08:41:55;;;;;;;29.05;6.08;;;;;;;12.95;73.21;150906.67;1765643;80;21060;-67
2022/10/17 08:44:55;;;;;;;11.68;5.72;;;;;;;13.00;72.82;150919.66;1759470;80;21112;-67
2022/10/17 08:47:35;;;;;;;10.65;5.25;;;;;;;13.04;72.59;150930.05;1780079;79;21525;-67
2022/10/17 08:50:07;;;;;;;12.95;5.85;;;;;;;13.10;71.82;150944.36;1767327;79;21579;-64
2022/10/17 08:52:48;;;;;;;13.98;4.92;;;;;;;13.17;70.78;150963.88;1758089;79;21103;-68
2022/10/17 08:55:18;;;;;;;12.85;4.83;;;;;;;13.23;69.94;150976.86;1770634;80;21024;-68
2022/10/17 08:57:47;;;;;;;23.65;5.80;;;;;;;13.28;68.91;150991.17;1756634;80;21122;-66
2022/10/17 09:00:18;;;;;;;34.53;5.50;;;;;;;13.34;69.21;151005.44;1767699;80;21036;-66
2022/10/17 09:03:03;;;;;;;19.80;4.83;;;;;;;13.39;69.43;151018.48;1763148;79;21146;-67
2022/10/17 09:05:40;;;;;;;16.87;5.33;;;;;;;13.45;69.49;151034.13;1768326;80;21149;-67
2022/10/17 09:08:50;;;;;;;13.75;4.87;;;;;;;13.50;69.33;151044.52;1767051;80;20997;-68
2022/10/17 09:11:54;;;;;;;17.85;5.42;;;;;;;13.48;68.35;151039.31;1757926;80;20973;-66
2022/10/17 09:14:45;;;;;;;13.03;4.67;;;;;;;13.47;67.71;151038.00;1781931;80;21031;-67
2022/10/17 09:17:18;;;;;;;13.50;5.20;;;;;;;13.44;67.18;151031.52;1774855;80;21698;-67
2022/10/17 09:19:53;;;;;;;7.40;4.53;;;;;;;13.44;66.65;151031.52;1781853;80;21267;-67
2022/10/17 09:22:24;;;;;;;10.70;5.33;;;;;;;13.45;66.22;151032.80;1783927;80;21064;-67
2022/10/17 09:24:55;;;;;;;10.72;4.58;;;;;;;13.44;65.80;151030.20;1775868;79;21075;-65
2022/10/17 09:27:39;;;;;;;9.08;4.60;;;;;;;13.40;65.36;151021.08;1758158;80;21088;-64
2022/10/17 09:30:35;;;;;;;11.50;4.87;;;;;;;13.37;65.06;151011.97;1724491;81;21297;-66
2022/10/17 09:33:17;;;;;;;9.95;4.33;;;;;;;13.38;65.39;151015.89;1698933;82;21066;-68
2022/10/17 09:35:45;;;;;;;9.88;5.10;;;;;;;13.43;65.66;151027.59;1745111;80;21028;-68
2022/10/17 09:38:18;;;;;;;9.90;5.00;;;;;;;13.45;65.00;151034.13;1740623;80;21062;-66
2022/10/17 09:40:58;;;;;;;11.75;5.75;;;;;;;13.50;64.92;151044.52;1745666;80;21067;-68
2022/10/17 09:43:25;;;;;;;12.05;5.92;;;;;;;13.53;64.65;151052.31;1728979;82;21190;-66
2022/10/17 09:46:11;;;;;;;10.03;5.30;;;;;;;13.55;64.46;151057.50;1750742;81;21040;-67
2022/10/17 09:48:56;;;;;;;10.32;5.00;;;;;;;13.55;64.04;151058.83;1750062;81;21402;-65
2022/10/17 09:51:23;;;;;;;8.60;5.08;;;;;;;13.55;63.97;151057.50;1748531;81;21040;-67
2022/10/17 09:53:56;;;;;;;11.03;5.17;;;;;;;13.58;64.19;151065.31;1747799;81;21041;-66
2022/10/17 09:56:23;;;;;;;10.82;5.12;;;;;;;13.59;64.15;151067.91;1747606;81;21028;-68
2022/10/17 09:58:56;;;;;;;9.05;4.83;;;;;;;13.60;63.12;151071.83;1722951;81;21041;-68
2022/10/17 10:01:30;;;;;;;8.83;4.30;;;;;;;13.63;62.91;151078.34;1744766;81;20976;-68
2022/10/17 10:04:15;;;;;;;9.38;4.15;;;;;;;13.68;62.39;151091.34;1748000;80;21056;-69
2022/10/17 10:07:04;;;;;;;7.05;3.80;;;;;;;13.73;61.79;151104.34;1751560;80;21051;-69
2022/10/17 10:09:33;;;;;;;5.45;3.40;;;;;;;13.81;61.02;151122.53;1734463;81;22016;-69
2022/10/17 10:12:15;;;;;;;5.97;3.30;;;;;;;13.85;59.73;151134.25;1740118;81;21020;-69
2022/10/17 10:14:51;;;;;;;8.83;3.75;;;;;;;13.88;59.66;151142.05;1751171;81;20953;-68
2022/10/17 10:17:40;;;;;;;8.78;3.45;;;;;;;13.94;59.66;151156.38;1736354;80;21029;-69
2022/10/17 10:20:29;;;;;;;5.80;2.80;;;;;;;14.01;59.34;151174.56;1736771;81;21515;-69
2022/10/17 10:23:17;;;;;;;10.70;3.05;;;;;;;14.07;58.59;151187.61;1745725;81;21117;-69
2022/10/17 10:25:59;;;;;;;4.22;3.00;;;;;;;14.13;57.79;151204.48;1744423;81;21114;-70
2022/10/17 10:28:29;;;;;;;6.92;2.52;;;;;;;14.17;58.29;151214.92;1747688;80;21101;-65
2022/10/17 10:30:56;;;;;;;4.80;2.40;;;;;;;14.23;57.12;151229.20;1729904;80;21084;-70
2022/10/17 10:33:27;;;;;;;6.33;2.58;;;;;;;14.25;56.50;151233.13;1778515;79;21087;-69
2022/10/17 10:36:02;;;;;;;3.65;2.12;;;;;;;14.25;56.52;151234.41;1780465;80;21241;-69
2022/10/17 10:38:32;;;;;;;5.50;2.27;;;;;;;14.28;55.89;151242.25;1777743;80;21018;-68
2022/10/17 10:41:06;;;;;;;5.45;2.20;;;;;;;14.29;55.26;151244.84;1780049;80;21039;-67
2022/10/17 10:43:46;;;;;;;8.05;2.60;;;;;;;14.31;55.07;151248.72;1771519;79;21020;-67
2022/10/17 10:46:25;;;;;;;4.37;2.02;;;;;;;14.32;55.32;151252.66;1780267;80;21024;-68
2022/10/17 10:49:00;;;;;;;5.62;2.33;;;;;;;14.36;54.93;151260.45;1782558;80;22313;-65
2022/10/17 10:51:41;;;;;;;7.53;2.65;;;;;;;14.38;55.09;151265.66;1775419;80;21409;-66
2022/10/17 10:54:28;;;;;;;6.30;2.40;;;;;;;14.40;54.24;151270.84;1748074;81;21072;-65
2022/10/17 10:57:03;;;;;;;5.53;2.40;;;;;;;14.42;54.17;151277.37;1742808;81;21098;-65
2022/10/17 11:00:01;;;;;;;4.17;2.35;;;;;;;14.42;54.22;151277.37;1752942;80;21101;-65
2022/10/17 11:02:33;;;;;;;4.05;2.50;;;;;;;14.44;54.22;151281.25;1745856;81;21824;-68
2022/10/17 11:05:12;;;;;;;3.40;2.22;;;;;;;14.46;54.39;151286.45;1746305;81;20998;-68
2022/10/17 11:08:03;;;;;;;5.40;2.08;;;;;;;14.46;53.96;151287.78;1729997;81;21246;-69
2022/10/17 11:10:44;;;;;;;8.00;2.50;;;;;;;14.46;53.86;151287.78;1729006;81;21079;-68
2022/10/17 11:13:28;;;;;;;5.05;2.70;;;;;;;14.48;54.03;151291.70;1775659;79;21010;-68
2022/10/17 11:16:22;;;;;;;2.77;1.75;;;;;;;14.48;53.71;151291.70;1773801;79;21099;-68
2022/10/17 11:19:27;;;;;;;4.40;2.25;;;;;;;14.51;53.76;151298.19;1779258;79;21034;-69
2022/10/17 11:22:06;;;;;;;5.47;2.10;;;;;;;14.52;53.40;151302.11;1753642;80;21039;-68
2022/10/17 11:24:55;;;;;;;10.70;2.35;;;;;;;14.53;53.37;151304.70;1771857;80;21040;-69
2022/10/17 11:27:23;;;;;;;7.50;2.50;;;;;;;14.55;53.38;151309.91;1782761;80;21044;-67
2022/10/17 11:29:50;;;;;;;4.72;2.33;;;;;;;14.58;53.43;151317.70;1774941;80;21023;-69
2022/10/17 11:32:31;;;;;;;7.47;2.47;;;;;;;14.59;53.46;151320.31;1780474;80;21042;-68
2022/10/17 11:35:23;;;;;;;10.20;2.95;;;;;;;14.64;53.69;151330.70;1778864;80;20980;-68
2022/10/17 11:38:34;;;;;;;4.47;2.40;;;;;;;14.66;54.28;151335.91;1776485;79;21064;-68
2022/10/17 11:41:07;;;;;;;4.47;2.77;;;;;;;14.71;54.65;151349.00;1778797;80;21493;-68
2022/10/17 11:44:06;;;;;;;3.12;2.20;;;;;;;14.75;54.94;151360.69;1779010;79;22014;-68
2022/10/17 11:46:34;;;;;;;6.80;2.80;;;;;;;14.76;54.58;151362.02;1730716;81;21094;-67
2022/10/17 11:49:18;;;;;;;4.58;2.87;;;;;;;14.77;55.03;151364.61;1774901;79;21106;-69
2022/10/17 11:51:53;;;;;;;5.15;2.67;;;;;;;14.80;54.93;151372.41;1778823;80;21076;-68